sensor_id;sensor_type;location;lat;lon;timestamp;P1;durP1;ratioP1;P2;durP2;ratioP2
53797;SDS011;39707;45.384;9.300;2022-08-03T00:01:34;3.88;;;3.15;;
53797;SDS011;39707;45.384;9.300;2022-08-03T00:04:00;2.83;;;2.47;;
53797;SDS011;39707;45.384;9.300;2022-08-03T00:06:26;7.88;;;3.03;;
53797;SDS011;39707;45.384;9.300;2022-08-03T00:08:52;4.57;;;2.20;;
53797;SDS011;39707;45.384;9.300;2022-08-03T00:11:18;6.78;;;2.45;;
53797;SDS011;39707;45.384;9.300;2022-08-03T00:13:44;8.85;;;2.25;;
53797;SDS011;39707;45.384;9.300;2022-08-03T00:16:10;3.17;;;2.20;;
53797;SDS011;39707;45.384;9.300;2022-08-03T00:18:37;2.88;;;2.38;;
53797;SDS011;39707;45.384;9.300;2022-08-03T00:21:03;3.33;;;2.50;;
53797;SDS011;39707;45.384;9.300;2022-08-03T00:23:29;7.32;;;3.42;;
53797;SDS011;39707;45.384;9.300;2022-08-03T00:25:55;5.70;;;3.90;;
53797;SDS011;39707;45.384;9.300;2022-08-03T00:28:21;3.42;;;2.53;;
53797;SDS011;39707;45.384;9.300;2022-08-03T00:30:47;5.95;;;3.20;;
53797;SDS011;39707;45.384;9.300;2022-08-03T00:33:13;10.63;;;2.65;;
53797;SDS011;39707;45.384;9.300;2022-08-03T00:35:40;4.88;;;3.20;;
53797;SDS011;39707;45.384;9.300;2022-08-03T00:38:06;3.80;;;2.40;;
53797;SDS011;39707;45.384;9.300;2022-08-03T00:40:32;4.13;;;2.30;;
53797;SDS011;39707;45.384;9.300;2022-08-03T00:43:03;3.47;;;2.38;;
53797;SDS011;39707;45.384;9.300;2022-08-03T00:45:31;5.28;;;2.45;;
53797;SDS011;39707;45.384;9.300;2022-08-03T00:47:58;8.27;;;2.78;;
53797;SDS011;39707;45.384;9.300;2022-08-03T00:50:25;3.40;;;2.28;;
53797;SDS011;39707;45.384;9.300;2022-08-03T00:52:53;4.28;;;3.03;;
53797;SDS011;39707;45.384;9.300;2022-08-03T00:57:45;3.70;;;2.30;;
53797;SDS011;39707;45.384;9.300;2022-08-03T01:00:12;13.10;;;2.43;;
53797;SDS011;39707;45.384;9.300;2022-08-03T01:02:39;3.00;;;1.83;;
53797;SDS011;39707;45.384;9.300;2022-08-03T01:05:05;2.47;;;1.88;;
53797;SDS011;39707;45.384;9.300;2022-08-03T01:15:24;3.42;;;2.50;;
53797;SDS011;39707;45.384;9.300;2022-08-03T01:20:39;2.67;;;2.13;;
53797;SDS011;39707;45.384;9.300;2022-08-03T01:23:22;1.75;;;1.63;;
53797;SDS011;39707;45.384;9.300;2022-08-03T01:30:53;4.20;;;2.28;;
53797;SDS011;39707;45.384;9.300;2022-08-03T01:33:21;2.25;;;1.65;;
53797;SDS011;39707;45.384;9.300;2022-08-03T01:38:25;2.70;;;1.70;;
53797;SDS011;39707;45.384;9.300;2022-08-03T01:40:52;3.15;;;1.63;;
53797;SDS011;39707;45.384;9.300;2022-08-03T01:43:19;3.65;;;1.90;;
53797;SDS011;39707;45.384;9.300;2022-08-03T01:45:47;1.77;;;1.45;;
53797;SDS011;39707;45.384;9.300;2022-08-03T01:48:14;1.98;;;1.50;;
53797;SDS011;39707;45.384;9.300;2022-08-03T01:50:40;7.07;;;2.20;;
53797;SDS011;39707;45.384;9.300;2022-08-03T01:53:07;5.38;;;2.53;;
53797;SDS011;39707;45.384;9.300;2022-08-03T01:55:34;2.78;;;1.80;;
53797;SDS011;39707;45.384;9.300;2022-08-03T01:58:02;2.30;;;1.85;;
53797;SDS011;39707;45.384;9.300;2022-08-03T02:00:28;3.17;;;2.50;;
53797;SDS011;39707;45.384;9.300;2022-08-03T02:02:55;6.82;;;2.55;;
53797;SDS011;39707;45.384;9.300;2022-08-03T02:05:21;2.83;;;1.55;;
53797;SDS011;39707;45.384;9.300;2022-08-03T02:07:48;2.33;;;1.67;;
53797;SDS011;39707;45.384;9.300;2022-08-03T02:10:15;2.70;;;1.50;;
53797;SDS011;39707;45.384;9.300;2022-08-03T02:12:43;2.63;;;1.63;;
53797;SDS011;39707;45.384;9.300;2022-08-03T02:15:11;1.63;;;1.38;;
53797;SDS011;39707;45.384;9.300;2022-08-03T02:17:37;1.45;;;1.13;;
53797;SDS011;39707;45.384;9.300;2022-08-03T02:20:03;4.25;;;1.55;;
53797;SDS011;39707;45.384;9.300;2022-08-03T02:22:30;1.65;;;1.25;;
53797;SDS011;39707;45.384;9.300;2022-08-03T02:24:57;1.75;;;1.13;;
53797;SDS011;39707;45.384;9.300;2022-08-03T02:27:25;1.23;;;1.02;;
53797;SDS011;39707;45.384;9.300;2022-08-03T02:29:52;15.55;;;1.88;;
53797;SDS011;39707;45.384;9.300;2022-08-03T02:32:20;1.35;;;1.17;;
53797;SDS011;39707;45.384;9.300;2022-08-03T02:34:49;4.20;;;1.65;;
53797;SDS011;39707;45.384;9.300;2022-08-03T02:37:17;1.98;;;1.23;;
53797;SDS011;39707;45.384;9.300;2022-08-03T02:39:43;2.67;;;1.90;;
53797;SDS011;39707;45.384;9.300;2022-08-03T02:42:10;3.92;;;1.52;;
53797;SDS011;39707;45.384;9.300;2022-08-03T02:44:36;2.95;;;1.88;;
53797;SDS011;39707;45.384;9.300;2022-08-03T02:47:04;2.42;;;1.55;;
53797;SDS011;39707;45.384;9.300;2022-08-03T02:49:30;3.35;;;1.58;;
53797;SDS011;39707;45.384;9.300;2022-08-03T02:51:57;1.23;;;1.00;;
53797;SDS011;39707;45.384;9.300;2022-08-03T02:54:23;2.38;;;1.25;;
53797;SDS011;39707;45.384;9.300;2022-08-03T02:56:50;2.78;;;1.60;;
53797;SDS011;39707;45.384;9.300;2022-08-03T02:59:18;2.88;;;1.40;;
53797;SDS011;39707;45.384;9.300;2022-08-03T03:01:45;1.33;;;1.20;;
53797;SDS011;39707;45.384;9.300;2022-08-03T03:04:11;1.50;;;0.90;;
53797;SDS011;39707;45.384;9.300;2022-08-03T03:06:38;2.47;;;1.88;;
53797;SDS011;39707;45.384;9.300;2022-08-03T03:09:05;4.38;;;2.42;;
53797;SDS011;39707;45.384;9.300;2022-08-03T03:11:31;1.13;;;0.95;;
53797;SDS011;39707;45.384;9.300;2022-08-03T03:13:57;2.17;;;1.45;;
53797;SDS011;39707;45.384;9.300;2022-08-03T03:16:25;2.95;;;1.58;;
53797;SDS011;39707;45.384;9.300;2022-08-03T03:18:51;1.00;;;0.98;;
53797;SDS011;39707;45.384;9.300;2022-08-03T03:21:18;4.43;;;2.45;;
53797;SDS011;39707;45.384;9.300;2022-08-03T03:23:45;2.30;;;1.40;;
53797;SDS011;39707;45.384;9.300;2022-08-03T03:26:12;1.80;;;1.20;;
53797;SDS011;39707;45.384;9.300;2022-08-03T03:28:38;1.40;;;1.03;;
53797;SDS011;39707;45.384;9.300;2022-08-03T03:31:05;3.67;;;2.13;;
53797;SDS011;39707;45.384;9.300;2022-08-03T03:33:32;8.90;;;1.80;;
53797;SDS011;39707;45.384;9.300;2022-08-03T03:35:58;1.97;;;1.57;;
53797;SDS011;39707;45.384;9.300;2022-08-03T03:38:25;4.55;;;1.60;;
53797;SDS011;39707;45.384;9.300;2022-08-03T03:40:51;2.92;;;1.60;;
53797;SDS011;39707;45.384;9.300;2022-08-03T03:43:17;1.98;;;1.33;;
53797;SDS011;39707;45.384;9.300;2022-08-03T03:45:43;2.35;;;1.38;;
53797;SDS011;39707;45.384;9.300;2022-08-03T03:48:10;1.50;;;1.23;;
53797;SDS011;39707;45.384;9.300;2022-08-03T03:50:37;2.95;;;1.90;;
53797;SDS011;39707;45.384;9.300;2022-08-03T03:53:07;2.10;;;1.92;;
53797;SDS011;39707;45.384;9.300;2022-08-03T03:55:34;4.60;;;2.72;;
53797;SDS011;39707;45.384;9.300;2022-08-03T03:58:00;2.72;;;1.85;;
53797;SDS011;39707;45.384;9.300;2022-08-03T04:00:28;3.72;;;2.33;;
53797;SDS011;39707;45.384;9.300;2022-08-03T04:02:54;2.58;;;1.45;;
53797;SDS011;39707;45.384;9.300;2022-08-03T04:05:20;6.80;;;3.40;;
53797;SDS011;39707;45.384;9.300;2022-08-03T04:08:09;4.53;;;2.75;;
53797;SDS011;39707;45.384;9.300;2022-08-03T04:13:33;2.42;;;1.65;;
53797;SDS011;39707;45.384;9.300;2022-08-03T04:15:59;2.20;;;1.95;;
53797;SDS011;39707;45.384;9.300;2022-08-03T04:18:27;3.90;;;2.47;;
53797;SDS011;39707;45.384;9.300;2022-08-03T04:20:54;4.15;;;2.17;;
53797;SDS011;39707;45.384;9.300;2022-08-03T04:23:21;3.83;;;2.05;;
53797;SDS011;39707;45.384;9.300;2022-08-03T04:25:50;3.08;;;1.80;;
53797;SDS011;39707;45.384;9.300;2022-08-03T04:28:16;7.80;;;2.47;;
53797;SDS011;39707;45.384;9.300;2022-08-03T04:30:43;2.97;;;1.92;;
53797;SDS011;39707;45.384;9.300;2022-08-03T04:33:13;2.00;;;1.52;;
53797;SDS011;39707;45.384;9.300;2022-08-03T04:35:45;2.05;;;1.52;;
53797;SDS011;39707;45.384;9.300;2022-08-03T04:40:39;1.80;;;1.40;;
53797;SDS011;39707;45.384;9.300;2022-08-03T04:43:06;1.75;;;1.40;;
53797;SDS011;39707;45.384;9.300;2022-08-03T04:45:33;5.00;;;1.63;;
53797;SDS011;39707;45.384;9.300;2022-08-03T04:48:00;2.85;;;1.80;;
53797;SDS011;39707;45.384;9.300;2022-08-03T04:50:26;2.92;;;1.05;;
53797;SDS011;39707;45.384;9.300;2022-08-03T04:52:53;3.45;;;1.77;;
53797;SDS011;39707;45.384;9.300;2022-08-03T04:55:25;4.90;;;1.70;;
53797;SDS011;39707;45.384;9.300;2022-08-03T04:57:52;2.13;;;1.35;;
53797;SDS011;39707;45.384;9.300;2022-08-03T05:00:18;5.50;;;1.50;;
53797;SDS011;39707;45.384;9.300;2022-08-03T05:02:44;1.50;;;1.40;;
53797;SDS011;39707;45.384;9.300;2022-08-03T05:05:10;2.30;;;1.55;;
53797;SDS011;39707;45.384;9.300;2022-08-03T05:07:36;3.03;;;2.08;;
53797;SDS011;39707;45.384;9.300;2022-08-03T05:10:03;2.28;;;1.60;;
53797;SDS011;39707;45.384;9.300;2022-08-03T05:12:30;5.30;;;1.98;;
53797;SDS011;39707;45.384;9.300;2022-08-03T05:14:56;2.13;;;1.60;;
53797;SDS011;39707;45.384;9.300;2022-08-03T05:17:22;2.63;;;1.85;;
53797;SDS011;39707;45.384;9.300;2022-08-03T05:19:48;5.88;;;1.85;;
53797;SDS011;39707;45.384;9.300;2022-08-03T05:22:14;2.90;;;1.73;;
53797;SDS011;39707;45.384;9.300;2022-08-03T05:24:40;5.05;;;2.67;;
53797;SDS011;39707;45.384;9.300;2022-08-03T05:27:06;4.15;;;2.08;;
53797;SDS011;39707;45.384;9.300;2022-08-03T05:29:32;3.05;;;1.95;;
53797;SDS011;39707;45.384;9.300;2022-08-03T05:31:58;2.83;;;1.83;;
53797;SDS011;39707;45.384;9.300;2022-08-03T05:34:25;3.20;;;2.38;;
53797;SDS011;39707;45.384;9.300;2022-08-03T05:36:51;3.25;;;2.10;;
53797;SDS011;39707;45.384;9.300;2022-08-03T05:39:17;7.35;;;3.28;;
53797;SDS011;39707;45.384;9.300;2022-08-03T05:41:43;5.50;;;3.75;;
53797;SDS011;39707;45.384;9.300;2022-08-03T05:44:09;4.80;;;2.85;;
53797;SDS011;39707;45.384;9.300;2022-08-03T05:46:35;6.05;;;2.90;;
53797;SDS011;39707;45.384;9.300;2022-08-03T05:49:01;2.15;;;1.88;;
53797;SDS011;39707;45.384;9.300;2022-08-03T05:51:29;5.73;;;1.70;;
53797;SDS011;39707;45.384;9.300;2022-08-03T05:53:55;2.97;;;2.00;;
53797;SDS011;39707;45.384;9.300;2022-08-03T05:56:23;3.22;;;2.50;;
53797;SDS011;39707;45.384;9.300;2022-08-03T05:58:49;2.53;;;2.03;;
53797;SDS011;39707;45.384;9.300;2022-08-03T06:01:16;2.70;;;1.98;;
53797;SDS011;39707;45.384;9.300;2022-08-03T06:03:43;1.63;;;1.50;;
53797;SDS011;39707;45.384;9.300;2022-08-03T06:06:09;2.60;;;2.00;;
53797;SDS011;39707;45.384;9.300;2022-08-03T06:08:35;6.57;;;2.20;;
53797;SDS011;39707;45.384;9.300;2022-08-03T06:11:02;5.18;;;2.42;;
53797;SDS011;39707;45.384;9.300;2022-08-03T06:13:28;3.70;;;2.40;;
53797;SDS011;39707;45.384;9.300;2022-08-03T06:15:55;2.13;;;1.67;;
53797;SDS011;39707;45.384;9.300;2022-08-03T06:18:21;3.58;;;1.90;;
53797;SDS011;39707;45.384;9.300;2022-08-03T06:23:14;5.50;;;2.17;;
53797;SDS011;39707;45.384;9.300;2022-08-03T06:25:40;3.28;;;1.55;;
53797;SDS011;39707;45.384;9.300;2022-08-03T06:28:07;4.28;;;1.65;;
53797;SDS011;39707;45.384;9.300;2022-08-03T06:30:33;4.10;;;2.58;;
53797;SDS011;39707;45.384;9.300;2022-08-03T06:33:00;1.63;;;1.52;;
53797;SDS011;39707;45.384;9.300;2022-08-03T06:35:26;3.80;;;2.10;;
53797;SDS011;39707;45.384;9.300;2022-08-03T06:37:52;2.08;;;1.60;;
53797;SDS011;39707;45.384;9.300;2022-08-03T06:40:20;3.17;;;2.40;;
53797;SDS011;39707;45.384;9.300;2022-08-03T06:42:57;3.53;;;2.03;;
53797;SDS011;39707;45.384;9.300;2022-08-03T06:45:23;2.50;;;1.85;;
53797;SDS011;39707;45.384;9.300;2022-08-03T06:47:58;2.03;;;1.58;;
53797;SDS011;39707;45.384;9.300;2022-08-03T06:50:24;2.63;;;1.30;;
53797;SDS011;39707;45.384;9.300;2022-08-03T06:52:50;2.13;;;1.30;;
53797;SDS011;39707;45.384;9.300;2022-08-03T06:55:16;5.15;;;1.38;;
53797;SDS011;39707;45.384;9.300;2022-08-03T06:57:42;8.07;;;1.65;;
53797;SDS011;39707;45.384;9.300;2022-08-03T07:00:08;2.60;;;1.10;;
53797;SDS011;39707;45.384;9.300;2022-08-03T07:02:35;2.28;;;1.17;;
53797;SDS011;39707;45.384;9.300;2022-08-03T07:05:02;0.70;;;0.70;;
53797;SDS011;39707;45.384;9.300;2022-08-03T07:07:28;2.33;;;1.50;;
53797;SDS011;39707;45.384;9.300;2022-08-03T07:09:54;1.92;;;1.30;;
53797;SDS011;39707;45.384;9.300;2022-08-03T07:12:20;1.50;;;1.40;;
53797;SDS011;39707;45.384;9.300;2022-08-03T07:14:46;2.75;;;1.27;;
53797;SDS011;39707;45.384;9.300;2022-08-03T07:17:12;1.90;;;1.20;;
53797;SDS011;39707;45.384;9.300;2022-08-03T07:19:38;1.55;;;1.35;;
53797;SDS011;39707;45.384;9.300;2022-08-03T07:22:04;2.90;;;1.25;;
53797;SDS011;39707;45.384;9.300;2022-08-03T07:24:30;2.08;;;1.02;;
53797;SDS011;39707;45.384;9.300;2022-08-03T07:26:56;2.13;;;1.88;;
53797;SDS011;39707;45.384;9.300;2022-08-03T07:29:22;5.47;;;1.42;;
53797;SDS011;39707;45.384;9.300;2022-08-03T07:31:48;1.52;;;1.35;;
53797;SDS011;39707;45.384;9.300;2022-08-03T07:34:15;1.50;;;1.10;;
53797;SDS011;39707;45.384;9.300;2022-08-03T07:36:41;2.05;;;1.52;;
53797;SDS011;39707;45.384;9.300;2022-08-03T07:39:07;6.00;;;1.77;;
53797;SDS011;39707;45.384;9.300;2022-08-03T07:41:33;5.03;;;1.60;;
53797;SDS011;39707;45.384;9.300;2022-08-03T07:43:59;3.67;;;1.30;;
53797;SDS011;39707;45.384;9.300;2022-08-03T07:46:25;2.03;;;1.48;;
53797;SDS011;39707;45.384;9.300;2022-08-03T07:48:51;2.22;;;1.00;;
53797;SDS011;39707;45.384;9.300;2022-08-03T07:51:17;2.90;;;1.17;;
53797;SDS011;39707;45.384;9.300;2022-08-03T07:53:43;1.15;;;0.80;;
53797;SDS011;39707;45.384;9.300;2022-08-03T07:56:09;3.33;;;1.98;;
53797;SDS011;39707;45.384;9.300;2022-08-03T07:58:35;0.88;;;0.60;;
53797;SDS011;39707;45.384;9.300;2022-08-03T08:01:01;1.30;;;0.95;;
53797;SDS011;39707;45.384;9.300;2022-08-03T08:03:28;3.05;;;1.20;;
53797;SDS011;39707;45.384;9.300;2022-08-03T08:05:53;2.40;;;1.50;;
53797;SDS011;39707;45.384;9.300;2022-08-03T08:08:19;2.70;;;1.10;;
53797;SDS011;39707;45.384;9.300;2022-08-03T08:10:46;2.15;;;1.25;;
53797;SDS011;39707;45.384;9.300;2022-08-03T08:13:12;2.15;;;1.17;;
53797;SDS011;39707;45.384;9.300;2022-08-03T08:15:38;2.05;;;1.33;;
53797;SDS011;39707;45.384;9.300;2022-08-03T08:18:04;2.17;;;1.00;;
53797;SDS011;39707;45.384;9.300;2022-08-03T08:20:31;3.80;;;1.00;;
53797;SDS011;39707;45.384;9.300;2022-08-03T08:22:58;1.25;;;0.95;;
53797;SDS011;39707;45.384;9.300;2022-08-03T08:27:51;3.13;;;1.35;;
53797;SDS011;39707;45.384;9.300;2022-08-03T08:30:18;1.10;;;1.00;;
53797;SDS011;39707;45.384;9.300;2022-08-03T08:35:10;10.23;;;1.13;;
53797;SDS011;39707;45.384;9.300;2022-08-03T08:37:36;2.10;;;1.02;;
53797;SDS011;39707;45.384;9.300;2022-08-03T08:40:03;1.17;;;0.80;;
53797;SDS011;39707;45.384;9.300;2022-08-03T08:42:33;1.50;;;0.90;;
53797;SDS011;39707;45.384;9.300;2022-08-03T08:44:59;4.55;;;1.10;;
53797;SDS011;39707;45.384;9.300;2022-08-03T08:47:28;1.50;;;0.88;;
53797;SDS011;39707;45.384;9.300;2022-08-03T08:49:54;0.65;;;0.65;;
53797;SDS011;39707;45.384;9.300;2022-08-03T08:52:25;0.45;;;0.35;;
53797;SDS011;39707;45.384;9.300;2022-08-03T08:54:54;5.75;;;1.10;;
53797;SDS011;39707;45.384;9.300;2022-08-03T08:57:21;3.08;;;1.13;;
53797;SDS011;39707;45.384;9.300;2022-08-03T08:59:49;2.10;;;0.85;;
53797;SDS011;39707;45.384;9.300;2022-08-03T09:02:15;1.03;;;0.80;;
53797;SDS011;39707;45.384;9.300;2022-08-03T09:04:41;0.70;;;0.60;;
53797;SDS011;39707;45.384;9.300;2022-08-03T09:07:09;5.63;;;1.48;;
53797;SDS011;39707;45.384;9.300;2022-08-03T09:09:35;0.80;;;0.73;;
53797;SDS011;39707;45.384;9.300;2022-08-03T09:12:01;0.55;;;0.50;;
53797;SDS011;39707;45.384;9.300;2022-08-03T09:14:28;0.47;;;0.47;;
53797;SDS011;39707;45.384;9.300;2022-08-03T09:16:55;0.90;;;0.70;;
53797;SDS011;39707;45.384;9.300;2022-08-03T09:19:26;0.90;;;0.70;;
53797;SDS011;39707;45.384;9.300;2022-08-03T09:22:06;0.60;;;0.60;;
53797;SDS011;39707;45.384;9.300;2022-08-03T09:24:32;1.38;;;0.70;;
53797;SDS011;39707;45.384;9.300;2022-08-03T09:26:58;2.05;;;1.33;;
53797;SDS011;39707;45.384;9.300;2022-08-03T09:29:24;1.02;;;0.80;;
53797;SDS011;39707;45.384;9.300;2022-08-03T09:31:58;2.78;;;0.82;;
53797;SDS011;39707;45.384;9.300;2022-08-03T09:34:24;1.38;;;1.08;;
53797;SDS011;39707;45.384;9.300;2022-08-03T09:36:52;2.75;;;1.00;;
53797;SDS011;39707;45.384;9.300;2022-08-03T09:39:20;7.45;;;1.10;;
53797;SDS011;39707;45.384;9.300;2022-08-03T09:42:07;1.35;;;0.70;;
53797;SDS011;39707;45.384;9.300;2022-08-03T09:44:33;1.20;;;1.10;;
53797;SDS011;39707;45.384;9.300;2022-08-03T09:49:25;1.38;;;0.55;;
53797;SDS011;39707;45.384;9.300;2022-08-03T09:51:52;1.98;;;1.15;;
53797;SDS011;39707;45.384;9.300;2022-08-03T09:54:24;0.98;;;0.75;;
53797;SDS011;39707;45.384;9.300;2022-08-03T09:56:51;0.68;;;0.60;;
53797;SDS011;39707;45.384;9.300;2022-08-03T09:59:51;0.65;;;0.65;;
53797;SDS011;39707;45.384;9.300;2022-08-03T10:02:18;9.23;;;1.10;;
53797;SDS011;39707;45.384;9.300;2022-08-03T10:04:46;2.15;;;0.80;;
53797;SDS011;39707;45.384;9.300;2022-08-03T10:09:39;1.40;;;0.80;;
53797;SDS011;39707;45.384;9.300;2022-08-03T10:14:53;1.77;;;0.70;;
53797;SDS011;39707;45.384;9.300;2022-08-03T10:17:20;1.13;;;0.75;;
53797;SDS011;39707;45.384;9.300;2022-08-03T10:19:47;0.85;;;0.85;;
53797;SDS011;39707;45.384;9.300;2022-08-03T10:22:14;2.57;;;0.70;;
53797;SDS011;39707;45.384;9.300;2022-08-03T10:25:03;1.10;;;0.80;;
53797;SDS011;39707;45.384;9.300;2022-08-03T10:27:30;1.55;;;0.90;;
53797;SDS011;39707;45.384;9.300;2022-08-03T10:29:59;1.73;;;0.88;;
53797;SDS011;39707;45.384;9.300;2022-08-03T10:32:27;2.40;;;1.40;;
53797;SDS011;39707;45.384;9.300;2022-08-03T10:35:02;0.95;;;0.88;;
53797;SDS011;39707;45.384;9.300;2022-08-03T10:37:29;0.60;;;0.40;;
53797;SDS011;39707;45.384;9.300;2022-08-03T10:39:56;1.10;;;0.88;;
53797;SDS011;39707;45.384;9.300;2022-08-03T10:42:23;1.27;;;0.52;;
53797;SDS011;39707;45.384;9.300;2022-08-03T10:44:55;2.35;;;0.57;;
53797;SDS011;39707;45.384;9.300;2022-08-03T10:47:22;0.90;;;0.55;;
53797;SDS011;39707;45.384;9.300;2022-08-03T10:49:48;0.80;;;0.50;;
53797;SDS011;39707;45.384;9.300;2022-08-03T10:52:14;1.00;;;0.77;;
53797;SDS011;39707;45.384;9.300;2022-08-03T10:54:43;1.33;;;0.73;;
53797;SDS011;39707;45.384;9.300;2022-08-03T10:57:41;1.23;;;0.88;;
53797;SDS011;39707;45.384;9.300;2022-08-03T11:00:07;0.40;;;0.40;;
53797;SDS011;39707;45.384;9.300;2022-08-03T11:05:25;1.55;;;1.00;;
53797;SDS011;39707;45.384;9.300;2022-08-03T11:08:16;0.30;;;0.30;;
53797;SDS011;39707;45.384;9.300;2022-08-03T11:10:38;0.40;;;0.40;;
53797;SDS011;39707;45.384;9.300;2022-08-03T11:13:05;0.28;;;0.20;;
53797;SDS011;39707;45.384;9.300;2022-08-03T11:15:32;0.85;;;0.45;;
53797;SDS011;39707;45.384;9.300;2022-08-03T11:18:08;0.65;;;0.65;;
53797;SDS011;39707;45.384;9.300;2022-08-03T11:23:10;0.75;;;0.55;;
53797;SDS011;39707;45.384;9.300;2022-08-03T11:28:24;0.73;;;0.65;;
53797;SDS011;39707;45.384;9.300;2022-08-03T11:30:52;0.40;;;0.40;;
53797;SDS011;39707;45.384;9.300;2022-08-03T11:33:27;1.20;;;0.70;;
53797;SDS011;39707;45.384;9.300;2022-08-03T11:35:58;0.50;;;0.50;;
53797;SDS011;39707;45.384;9.300;2022-08-03T11:38:24;1.35;;;0.35;;
53797;SDS011;39707;45.384;9.300;2022-08-03T11:40:51;1.08;;;0.60;;
53797;SDS011;39707;45.384;9.300;2022-08-03T11:46:04;0.65;;;0.50;;
53797;SDS011;39707;45.384;9.300;2022-08-03T11:48:37;0.40;;;0.40;;
53797;SDS011;39707;45.384;9.300;2022-08-03T11:51:05;3.22;;;0.82;;
53797;SDS011;39707;45.384;9.300;2022-08-03T11:53:31;0.95;;;0.60;;
53797;SDS011;39707;45.384;9.300;2022-08-03T11:55:58;0.93;;;0.70;;
53797;SDS011;39707;45.384;9.300;2022-08-03T11:58:24;0.73;;;0.43;;
53797;SDS011;39707;45.384;9.300;2022-08-03T12:00:51;0.97;;;0.70;;
53797;SDS011;39707;45.384;9.300;2022-08-03T12:03:18;0.75;;;0.52;;
53797;SDS011;39707;45.384;9.300;2022-08-03T12:05:45;0.65;;;0.65;;
53797;SDS011;39707;45.384;9.300;2022-08-03T12:08:12;1.35;;;0.70;;
53797;SDS011;39707;45.384;9.300;2022-08-03T12:13:05;1.13;;;0.68;;
53797;SDS011;39707;45.384;9.300;2022-08-03T12:15:33;0.35;;;0.30;;
53797;SDS011;39707;45.384;9.300;2022-08-03T12:17:59;1.00;;;0.50;;
53797;SDS011;39707;45.384;9.300;2022-08-03T12:20:27;0.53;;;0.47;;
53797;SDS011;39707;45.384;9.300;2022-08-03T12:23:00;0.50;;;0.50;;
53797;SDS011;39707;45.384;9.300;2022-08-03T12:25:26;0.95;;;0.60;;
53797;SDS011;39707;45.384;9.300;2022-08-03T12:27:53;0.50;;;0.40;;
53797;SDS011;39707;45.384;9.300;2022-08-03T12:30:19;1.40;;;0.50;;
53797;SDS011;39707;45.384;9.300;2022-08-03T12:32:45;1.15;;;0.75;;
53797;SDS011;39707;45.384;9.300;2022-08-03T12:35:20;1.77;;;1.02;;
53797;SDS011;39707;45.384;9.300;2022-08-03T12:37:48;1.25;;;0.68;;
53797;SDS011;39707;45.384;9.300;2022-08-03T12:40:14;0.95;;;0.90;;
53797;SDS011;39707;45.384;9.300;2022-08-03T12:42:49;0.90;;;0.60;;
53797;SDS011;39707;45.384;9.300;2022-08-03T12:47:57;0.55;;;0.55;;
53797;SDS011;39707;45.384;9.300;2022-08-03T12:52:50;1.43;;;0.93;;
53797;SDS011;39707;45.384;9.300;2022-08-03T12:55:19;0.82;;;0.73;;
53797;SDS011;39707;45.384;9.300;2022-08-03T12:57:45;1.27;;;0.80;;
53797;SDS011;39707;45.384;9.300;2022-08-03T13:00:12;0.68;;;0.45;;
53797;SDS011;39707;45.384;9.300;2022-08-03T13:02:38;1.02;;;0.65;;
53797;SDS011;39707;45.384;9.300;2022-08-03T13:05:11;0.70;;;0.60;;
53797;SDS011;39707;45.384;9.300;2022-08-03T13:07:44;1.23;;;0.70;;
53797;SDS011;39707;45.384;9.300;2022-08-03T13:10:11;1.02;;;0.73;;
53797;SDS011;39707;45.384;9.300;2022-08-03T13:12:47;0.60;;;0.57;;
53797;SDS011;39707;45.384;9.300;2022-08-03T13:15:13;6.22;;;0.80;;
53797;SDS011;39707;45.384;9.300;2022-08-03T13:17:39;1.20;;;0.85;;
53797;SDS011;39707;45.384;9.300;2022-08-03T13:20:05;2.93;;;0.60;;
53797;SDS011;39707;45.384;9.300;2022-08-03T13:22:32;0.60;;;0.57;;
53797;SDS011;39707;45.384;9.300;2022-08-03T13:24:58;0.80;;;0.52;;
53797;SDS011;39707;45.384;9.300;2022-08-03T13:27:25;1.40;;;0.82;;
53797;SDS011;39707;45.384;9.300;2022-08-03T13:29:52;1.67;;;0.63;;
53797;SDS011;39707;45.384;9.300;2022-08-03T13:32:18;2.93;;;1.10;;
53797;SDS011;39707;45.384;9.300;2022-08-03T13:34:44;2.30;;;1.00;;
53797;SDS011;39707;45.384;9.300;2022-08-03T13:37:10;0.43;;;0.43;;
53797;SDS011;39707;45.384;9.300;2022-08-03T13:39:37;0.80;;;0.60;;
53797;SDS011;39707;45.384;9.300;2022-08-03T13:42:03;1.63;;;0.90;;
53797;SDS011;39707;45.384;9.300;2022-08-03T13:44:32;4.30;;;1.20;;
53797;SDS011;39707;45.384;9.300;2022-08-03T13:47:01;1.13;;;0.60;;
53797;SDS011;39707;45.384;9.300;2022-08-03T13:49:27;8.75;;;0.68;;
53797;SDS011;39707;45.384;9.300;2022-08-03T13:51:54;0.70;;;0.70;;
53797;SDS011;39707;45.384;9.300;2022-08-03T13:54:20;1.00;;;0.70;;
53797;SDS011;39707;45.384;9.300;2022-08-03T13:56:46;0.83;;;0.70;;
53797;SDS011;39707;45.384;9.300;2022-08-03T13:59:19;1.30;;;0.65;;
53797;SDS011;39707;45.384;9.300;2022-08-03T14:01:48;1.02;;;0.60;;
53797;SDS011;39707;45.384;9.300;2022-08-03T14:04:15;2.47;;;0.68;;
53797;SDS011;39707;45.384;9.300;2022-08-03T14:06:41;0.73;;;0.60;;
53797;SDS011;39707;45.384;9.300;2022-08-03T14:09:09;1.98;;;0.68;;
53797;SDS011;39707;45.384;9.300;2022-08-03T14:11:35;0.73;;;0.68;;
53797;SDS011;39707;45.384;9.300;2022-08-03T14:14:01;1.05;;;0.85;;
53797;SDS011;39707;45.384;9.300;2022-08-03T14:16:27;0.98;;;0.63;;
53797;SDS011;39707;45.384;9.300;2022-08-03T14:18:53;0.98;;;0.80;;
53797;SDS011;39707;45.384;9.300;2022-08-03T14:21:19;1.95;;;0.55;;
53797;SDS011;39707;45.384;9.300;2022-08-03T14:23:45;0.88;;;0.65;;
53797;SDS011;39707;45.384;9.300;2022-08-03T14:26:11;1.90;;;0.70;;
53797;SDS011;39707;45.384;9.300;2022-08-03T14:28:38;2.75;;;0.68;;
53797;SDS011;39707;45.384;9.300;2022-08-03T14:31:05;9.40;;;0.90;;
53797;SDS011;39707;45.384;9.300;2022-08-03T14:33:31;1.23;;;0.70;;
53797;SDS011;39707;45.384;9.300;2022-08-03T14:35:57;0.70;;;0.50;;
53797;SDS011;39707;45.384;9.300;2022-08-03T14:38:23;1.15;;;0.85;;
53797;SDS011;39707;45.384;9.300;2022-08-03T14:40:49;0.77;;;0.60;;
53797;SDS011;39707;45.384;9.300;2022-08-03T14:43:15;0.93;;;0.53;;
53797;SDS011;39707;45.384;9.300;2022-08-03T14:45:45;0.68;;;0.55;;
53797;SDS011;39707;45.384;9.300;2022-08-03T14:48:11;1.23;;;1.07;;
53797;SDS011;39707;45.384;9.300;2022-08-03T14:50:37;1.55;;;1.08;;
53797;SDS011;39707;45.384;9.300;2022-08-03T14:53:03;1.75;;;1.13;;
53797;SDS011;39707;45.384;9.300;2022-08-03T14:55:29;0.55;;;0.55;;
53797;SDS011;39707;45.384;9.300;2022-08-03T14:57:56;0.60;;;0.45;;
53797;SDS011;39707;45.384;9.300;2022-08-03T15:00:22;1.10;;;0.75;;
53797;SDS011;39707;45.384;9.300;2022-08-03T15:02:48;0.75;;;0.60;;
53797;SDS011;39707;45.384;9.300;2022-08-03T15:05:14;0.63;;;0.45;;
53797;SDS011;39707;45.384;9.300;2022-08-03T15:07:40;0.73;;;0.73;;
53797;SDS011;39707;45.384;9.300;2022-08-03T15:10:06;0.50;;;0.50;;
53797;SDS011;39707;45.384;9.300;2022-08-03T15:12:32;1.00;;;0.80;;
53797;SDS011;39707;45.384;9.300;2022-08-03T15:14:58;1.15;;;0.80;;
53797;SDS011;39707;45.384;9.300;2022-08-03T15:17:24;1.33;;;0.73;;
53797;SDS011;39707;45.384;9.300;2022-08-03T15:19:50;0.80;;;0.80;;
53797;SDS011;39707;45.384;9.300;2022-08-03T15:22:16;1.17;;;0.75;;
53797;SDS011;39707;45.384;9.300;2022-08-03T15:24:43;1.67;;;0.77;;
53797;SDS011;39707;45.384;9.300;2022-08-03T15:27:09;0.43;;;0.38;;
53797;SDS011;39707;45.384;9.300;2022-08-03T15:29:35;0.50;;;0.50;;
53797;SDS011;39707;45.384;9.300;2022-08-03T15:32:01;4.57;;;0.60;;
53797;SDS011;39707;45.384;9.300;2022-08-03T15:34:27;0.50;;;0.47;;
53797;SDS011;39707;45.384;9.300;2022-08-03T15:36:53;0.75;;;0.47;;
53797;SDS011;39707;45.384;9.300;2022-08-03T15:39:19;0.93;;;0.50;;
53797;SDS011;39707;45.384;9.300;2022-08-03T15:41:45;1.05;;;0.80;;
53797;SDS011;39707;45.384;9.300;2022-08-03T15:44:11;0.57;;;0.50;;
53797;SDS011;39707;45.384;9.300;2022-08-03T15:46:37;1.17;;;0.93;;
53797;SDS011;39707;45.384;9.300;2022-08-03T15:49:03;0.73;;;0.60;;